createdAt,value
2023-03-22T00:02:34.156Z,9.77
2023-03-22T00:06:17.271Z,8.82
2023-03-22T00:09:59.122Z,10.75
2023-03-22T00:13:43.417Z,8.65
2023-03-22T00:17:25.825Z,10.70
2023-03-22T00:21:13.611Z,12.93
2023-03-22T00:24:59.707Z,8.75
2023-03-22T00:28:43.271Z,9.20
2023-03-22T00:32:29.038Z,9.18
2023-03-22T00:36:12.386Z,10.27
2023-03-22T00:39:56.881Z,6.22
2023-03-22T00:43:40.791Z,10.20
2023-03-22T00:47:23.557Z,11.32
2023-03-22T00:51:06.571Z,9.13
2023-03-22T00:54:49.137Z,14.88
2023-03-22T00:58:31.798Z,8.45
2023-03-22T01:02:17.669Z,9.15
2023-03-22T01:06:03.750Z,10.48
2023-03-22T01:09:49.707Z,9.35
2023-03-22T01:13:32.645Z,7.13
2023-03-22T01:17:15.324Z,9.18
2023-03-22T01:21:00.008Z,11.57
2023-03-22T01:24:42.294Z,10.30
2023-03-22T01:28:26.506Z,10.47
2023-03-22T01:32:08.984Z,7.97
2023-03-22T01:35:52.370Z,6.63
2023-03-22T01:39:34.558Z,8.57
2023-03-22T01:43:18.304Z,6.85
2023-03-22T01:47:00.224Z,6.90
2023-03-22T01:50:46.919Z,6.60
2023-03-22T01:54:44.135Z,10.20
2023-03-22T01:58:27.864Z,6.93
2023-03-22T02:02:19.780Z,7.60
2023-03-22T02:06:02.358Z,10.00
2023-03-22T02:09:44.292Z,6.63
2023-03-22T02:13:48.114Z,8.32
2023-03-22T02:18:06.707Z,6.97
2023-03-22T02:22:21.838Z,8.98
2023-03-22T02:26:15.691Z,6.88
2023-03-22T02:30:07.112Z,8.30
2023-03-22T02:34:15.543Z,7.47
2023-03-22T02:38:12.668Z,13.85
2023-03-22T02:42:23.899Z,8.05
2023-03-22T02:46:30.998Z,11.07
2023-03-22T02:50:33.817Z,8.40
2023-03-22T02:54:21.717Z,4.37
2023-03-22T02:58:10.154Z,7.75
2023-03-22T03:01:56.105Z,9.52
2023-03-22T03:05:48.065Z,7.60
2023-03-22T03:09:31.606Z,8.40
2023-03-22T03:13:15.893Z,8.80
2023-03-22T03:17:35.359Z,6.75
2023-03-22T03:21:42.594Z,5.55
2023-03-22T03:25:38.613Z,9.15
2023-03-22T03:29:32.302Z,8.05
2023-03-22T03:33:18.290Z,8.18
2023-03-22T03:37:15.928Z,7.53
2023-03-22T03:41:20.137Z,7.00
2023-03-22T03:45:02.430Z,6.78
2023-03-22T03:48:49.434Z,11.23
2023-03-22T03:52:31.552Z,6.63
2023-03-22T03:56:13.280Z,9.85
2023-03-22T03:59:55.266Z,6.82
2023-03-22T04:03:37.742Z,12.25
2023-03-22T04:07:19.450Z,7.37
2023-03-22T04:11:01.191Z,7.10
2023-03-22T04:14:43.270Z,6.55
2023-03-22T04:18:25.055Z,6.85
2023-03-22T04:22:06.776Z,6.97
2023-03-22T04:25:50.279Z,6.35
2023-03-22T04:29:32.425Z,7.05
2023-03-22T04:33:15.237Z,7.72
2023-03-22T04:36:57.503Z,6.68
2023-03-22T04:40:39.581Z,11.88
2023-03-22T04:44:22.779Z,11.27
2023-03-22T04:48:04.583Z,6.20
2023-03-22T04:51:46.343Z,5.60
2023-03-22T04:55:28.095Z,6.30
2023-03-22T04:59:10.969Z,4.85
2023-03-22T05:02:52.996Z,5.97
2023-03-22T05:06:34.896Z,4.88
2023-03-22T05:10:17.453Z,4.32
2023-03-22T05:13:59.272Z,4.20
2023-03-22T05:17:41.152Z,4.00
2023-03-22T05:21:36.768Z,5.85
2023-03-22T05:25:18.561Z,6.32
2023-03-22T05:29:00.294Z,6.20
2023-03-22T05:32:45.959Z,5.63
2023-03-22T05:36:29.694Z,8.25
2023-03-22T05:40:11.679Z,3.85
2023-03-22T05:43:53.520Z,4.00
2023-03-22T05:47:36.193Z,4.72
2023-03-22T05:51:19.072Z,5.72
2023-03-22T05:55:00.881Z,3.92
2023-03-22T05:58:42.700Z,5.30
2023-03-22T06:02:25.946Z,5.68
2023-03-22T06:09:52.352Z,7.95
2023-03-22T06:13:34.355Z,9.98
2023-03-22T06:17:16.548Z,8.90
2023-03-22T06:20:59.513Z,6.75
2023-03-22T06:24:42.385Z,6.40
2023-03-22T06:28:26.691Z,6.03
2023-03-22T06:32:11.315Z,6.32
2023-03-22T06:35:53.112Z,6.05
2023-03-22T06:39:38.370Z,4.55
2023-03-22T06:43:20.314Z,3.83
2023-03-22T06:47:02.981Z,3.08
2023-03-22T06:50:45.275Z,6.10
2023-03-22T06:54:27.678Z,3.15
2023-03-22T06:58:09.506Z,5.60
2023-03-22T07:01:51.412Z,9.00
2023-03-22T07:05:33.133Z,9.00
2023-03-22T07:09:15.228Z,16.17
2023-03-22T07:12:57.333Z,8.73
2023-03-22T07:16:39.058Z,10.98
2023-03-22T07:20:22.357Z,9.65
2023-03-22T07:27:46.206Z,9.07
2023-03-22T07:31:29.152Z,11.35
2023-03-22T07:35:11.163Z,11.18
2023-03-22T07:38:53.023Z,12.48
2023-03-22T07:42:34.878Z,9.18
2023-03-22T07:46:16.892Z,10.77
2023-03-22T07:49:58.813Z,13.48
2023-03-22T07:53:40.785Z,11.63
2023-03-22T07:57:22.501Z,16.00
2023-03-22T08:01:09.004Z,13.45
2023-03-22T08:04:54.511Z,10.48
2023-03-22T08:08:38.619Z,10.32
2023-03-22T08:12:20.456Z,31.02
2023-03-22T08:16:02.301Z,11.48
2023-03-22T08:19:44.293Z,14.75
2023-03-22T08:23:40.486Z,14.77
2023-03-22T08:27:23.065Z,15.40
2023-03-22T08:31:16.124Z,14.48
2023-03-22T08:34:57.884Z,13.73
2023-03-22T08:38:39.654Z,15.82
2023-03-22T08:42:21.813Z,12.48
2023-03-22T08:46:03.772Z,15.93
2023-03-22T08:49:45.660Z,13.98
2023-03-22T08:53:27.776Z,13.13
2023-03-22T08:57:10.936Z,15.15
2023-03-22T09:00:52.800Z,12.98
2023-03-22T09:04:34.783Z,19.50
2023-03-22T09:08:19.594Z,11.30
2023-03-22T09:12:01.528Z,14.48
2023-03-22T09:15:46.893Z,18.75
2023-03-22T09:19:28.844Z,23.02
2023-03-22T09:23:10.661Z,16.13
2023-03-22T09:26:52.441Z,16.08
2023-03-22T09:30:34.136Z,15.73
2023-03-22T09:34:16.764Z,16.55
2023-03-22T09:37:59.999Z,16.52
2023-03-22T09:41:55.860Z,19.25
2023-03-22T09:45:47.140Z,15.68
2023-03-22T09:49:52.554Z,13.48
2023-03-22T09:53:35.172Z,16.38
2023-03-22T09:57:38.925Z,11.25
2023-03-22T10:01:47.331Z,16.00
2023-03-22T10:05:35.236Z,12.95
2023-03-22T10:09:28.436Z,14.93
2023-03-22T10:13:35.885Z,13.57
2023-03-22T10:17:23.166Z,16.73
2023-03-22T10:21:17.037Z,13.27
2023-03-22T10:25:00.602Z,14.32
2023-03-22T10:28:46.433Z,17.23
2023-03-22T10:32:37.404Z,15.38
2023-03-22T10:36:27.120Z,16.83
2023-03-22T10:40:20.710Z,9.93
2023-03-22T10:44:04.701Z,14.38
2023-03-22T10:48:05.774Z,13.93
2023-03-22T10:51:50.909Z,10.20
2023-03-22T10:55:32.920Z,13.00
2023-03-22T10:59:47.789Z,17.95
2023-03-22T11:03:36.145Z,12.52
2023-03-22T11:07:27.897Z,8.48
2023-03-22T11:11:21.976Z,14.82
2023-03-22T11:15:05.414Z,10.98
2023-03-22T11:18:47.613Z,15.45
2023-03-22T11:22:40.208Z,11.60
2023-03-22T11:26:39.184Z,12.00
2023-03-22T11:30:27.617Z,12.02
2023-03-22T11:34:17.703Z,13.40
2023-03-22T11:38:02.289Z,11.98
2023-03-22T11:41:45.712Z,16.77
2023-03-22T11:45:31.581Z,12.30
2023-03-22T11:49:17.140Z,12.98
2023-03-22T11:53:02.811Z,18.08
2023-03-22T11:56:48.242Z,15.13
2023-03-22T12:00:33.329Z,12.32
2023-03-22T12:04:21.037Z,12.80
2023-03-22T12:08:35.314Z,17.73
2023-03-22T12:12:23.055Z,19.02
2023-03-22T12:16:07.871Z,13.18
2023-03-22T12:20:16.134Z,20.10
2023-03-22T12:24:02.617Z,14.32
2023-03-22T12:27:50.075Z,14.05
2023-03-22T12:31:38.846Z,11.63
2023-03-22T12:35:29.519Z,10.93
2023-03-22T12:39:26.396Z,14.90
2023-03-22T12:43:45.664Z,12.38
2023-03-22T12:47:41.684Z,14.75
2023-03-22T12:51:23.841Z,15.70
2023-03-22T12:55:06.796Z,18.67
2023-03-22T13:02:36.220Z,11.35
2023-03-22T13:06:45.414Z,10.55
2023-03-22T13:10:33.988Z,12.30
2023-03-22T13:14:52.880Z,11.55
2023-03-22T13:18:37.957Z,18.73
2023-03-22T13:22:27.100Z,12.60
2023-03-22T13:26:16.257Z,13.32
2023-03-22T13:29:59.472Z,12.32
2023-03-22T13:33:41.602Z,13.75
2023-03-22T13:37:36.001Z,20.23
2023-03-22T13:41:29.514Z,15.70
2023-03-22T13:45:33.535Z,20.33
2023-03-22T13:49:40.259Z,20.42
2023-03-22T13:53:33.814Z,18.70
2023-03-22T13:57:46.378Z,11.20
2023-03-22T14:01:36.851Z,18.60
2023-03-22T14:05:22.811Z,16.30
2023-03-22T14:09:13.794Z,19.65
2023-03-22T14:13:19.020Z,20.42
2023-03-22T14:17:11.751Z,13.82
2023-03-22T14:20:58.838Z,20.48
